sensor_id;sensor_type;location;lat;lon;timestamp;P1;durP1;ratioP1;P2;durP2;ratioP2
23222;SDS011;11780;13.904;100.620;2023-10-09T00:00:35;18.98;;;14.10;;
23222;SDS011;11780;13.904;100.620;2023-10-09T00:03:20;18.67;;;15.50;;
23222;SDS011;11780;13.904;100.620;2023-10-09T00:05:54;19.92;;;14.77;;
23222;SDS011;11780;13.904;100.620;2023-10-09T00:08:25;18.38;;;14.32;;
23222;SDS011;11780;13.904;100.620;2023-10-09T00:11:02;23.13;;;15.35;;
23222;SDS011;11780;13.904;100.620;2023-10-09T00:13:46;21.85;;;14.65;;
23222;SDS011;11780;13.904;100.620;2023-10-09T00:16:27;18.38;;;13.15;;
23222;SDS011;11780;13.904;100.620;2023-10-09T00:19:05;16.42;;;13.13;;
23222;SDS011;11780;13.904;100.620;2023-10-09T00:21:49;17.00;;;12.80;;
23222;SDS011;11780;13.904;100.620;2023-10-09T00:24:25;18.85;;;12.20;;
23222;SDS011;11780;13.904;100.620;2023-10-09T00:26:57;16.15;;;12.32;;
23222;SDS011;11780;13.904;100.620;2023-10-09T00:29:47;18.02;;;12.27;;
23222;SDS011;11780;13.904;100.620;2023-10-09T00:35:02;15.10;;;11.65;;
23222;SDS011;11780;13.904;100.620;2023-10-09T00:37:53;16.50;;;11.67;;
23222;SDS011;11780;13.904;100.620;2023-10-09T00:40:31;14.38;;;11.60;;
23222;SDS011;11780;13.904;100.620;2023-10-09T00:43:03;16.33;;;11.27;;
23222;SDS011;11780;13.904;100.620;2023-10-09T00:45:37;13.30;;;11.30;;
23222;SDS011;11780;13.904;100.620;2023-10-09T00:48:10;17.25;;;11.52;;
23222;SDS011;11780;13.904;100.620;2023-10-09T00:50:44;17.33;;;11.43;;
23222;SDS011;11780;13.904;100.620;2023-10-09T00:53:22;16.50;;;10.85;;
23222;SDS011;11780;13.904;100.620;2023-10-09T00:56:01;16.98;;;11.30;;
23222;SDS011;11780;13.904;100.620;2023-10-09T00:58:57;12.98;;;10.70;;
23222;SDS011;11780;13.904;100.620;2023-10-09T01:01:49;16.67;;;10.65;;
23222;SDS011;11780;13.904;100.620;2023-10-09T01:04:28;12.65;;;10.05;;
23222;SDS011;11780;13.904;100.620;2023-10-09T01:07:00;15.95;;;10.57;;
23222;SDS011;11780;13.904;100.620;2023-10-09T01:10:00;14.20;;;10.98;;
23222;SDS011;11780;13.904;100.620;2023-10-09T01:12:40;12.88;;;10.15;;
23222;SDS011;11780;13.904;100.620;2023-10-09T01:15:14;14.02;;;11.07;;
23222;SDS011;11780;13.904;100.620;2023-10-09T01:18:05;19.40;;;11.80;;
23222;SDS011;11780;13.904;100.620;2023-10-09T01:20:37;15.93;;;11.18;;
23222;SDS011;11780;13.904;100.620;2023-10-09T01:23:12;14.13;;;10.25;;
23222;SDS011;11780;13.904;100.620;2023-10-09T01:25:42;14.45;;;10.57;;
23222;SDS011;11780;13.904;100.620;2023-10-09T01:28:19;14.43;;;9.50;;
23222;SDS011;11780;13.904;100.620;2023-10-09T01:30:50;14.80;;;10.27;;
23222;SDS011;11780;13.904;100.620;2023-10-09T01:35:56;14.50;;;9.75;;
23222;SDS011;11780;13.904;100.620;2023-10-09T01:38:28;14.45;;;10.40;;
23222;SDS011;11780;13.904;100.620;2023-10-09T01:41:13;15.50;;;10.80;;
23222;SDS011;11780;13.904;100.620;2023-10-09T01:43:49;17.23;;;10.43;;
23222;SDS011;11780;13.904;100.620;2023-10-09T01:46:26;14.93;;;10.38;;
23222;SDS011;11780;13.904;100.620;2023-10-09T01:48:57;13.00;;;10.07;;
23222;SDS011;11780;13.904;100.620;2023-10-09T01:51:28;12.95;;;9.50;;
23222;SDS011;11780;13.904;100.620;2023-10-09T01:54:03;14.80;;;11.45;;
23222;SDS011;11780;13.904;100.620;2023-10-09T01:56:33;17.50;;;10.57;;
23222;SDS011;11780;13.904;100.620;2023-10-09T01:59:10;14.13;;;10.18;;
23222;SDS011;11780;13.904;100.620;2023-10-09T02:01:40;14.90;;;10.73;;
23222;SDS011;11780;13.904;100.620;2023-10-09T02:04:17;12.93;;;10.20;;
23222;SDS011;11780;13.904;100.620;2023-10-09T02:06:49;15.88;;;10.02;;
23222;SDS011;11780;13.904;100.620;2023-10-09T02:09:22;17.85;;;10.98;;
23222;SDS011;11780;13.904;100.620;2023-10-09T02:12:01;16.70;;;10.43;;
23222;SDS011;11780;13.904;100.620;2023-10-09T02:17:02;17.08;;;10.98;;
23222;SDS011;11780;13.904;100.620;2023-10-09T02:19:36;14.13;;;10.35;;
23222;SDS011;11780;13.904;100.620;2023-10-09T02:22:10;14.25;;;9.68;;
23222;SDS011;11780;13.904;100.620;2023-10-09T02:24:44;12.25;;;9.63;;
23222;SDS011;11780;13.904;100.620;2023-10-09T02:27:19;13.95;;;9.63;;
23222;SDS011;11780;13.904;100.620;2023-10-09T02:30:09;13.93;;;9.95;;
23222;SDS011;11780;13.904;100.620;2023-10-09T02:32:49;12.57;;;9.35;;
23222;SDS011;11780;13.904;100.620;2023-10-09T02:35:23;12.82;;;9.48;;
23222;SDS011;11780;13.904;100.620;2023-10-09T02:38:12;14.50;;;10.05;;
23222;SDS011;11780;13.904;100.620;2023-10-09T02:40:44;18.75;;;12.68;;
23222;SDS011;11780;13.904;100.620;2023-10-09T02:43:33;20.45;;;13.25;;
23222;SDS011;11780;13.904;100.620;2023-10-09T02:46:24;19.25;;;13.18;;
23222;SDS011;11780;13.904;100.620;2023-10-09T02:49:02;24.02;;;14.27;;
23222;SDS011;11780;13.904;100.620;2023-10-09T02:51:35;23.33;;;13.45;;
23222;SDS011;11780;13.904;100.620;2023-10-09T02:54:12;21.60;;;14.32;;
23222;SDS011;11780;13.904;100.620;2023-10-09T02:56:56;20.25;;;14.27;;
23222;SDS011;11780;13.904;100.620;2023-10-09T02:59:37;22.83;;;13.10;;
23222;SDS011;11780;13.904;100.620;2023-10-09T03:02:11;19.10;;;12.90;;
23222;SDS011;11780;13.904;100.620;2023-10-09T03:04:41;20.67;;;13.70;;
23222;SDS011;11780;13.904;100.620;2023-10-09T03:07:12;18.50;;;14.03;;
23222;SDS011;11780;13.904;100.620;2023-10-09T03:12:13;18.67;;;13.98;;
23222;SDS011;11780;13.904;100.620;2023-10-09T03:14:48;18.90;;;14.20;;
23222;SDS011;11780;13.904;100.620;2023-10-09T03:17:19;16.73;;;11.80;;
23222;SDS011;11780;13.904;100.620;2023-10-09T03:19:50;17.77;;;13.33;;
23222;SDS011;11780;13.904;100.620;2023-10-09T03:22:20;21.40;;;13.90;;
23222;SDS011;11780;13.904;100.620;2023-10-09T03:24:51;14.87;;;11.77;;
23222;SDS011;11780;13.904;100.620;2023-10-09T03:29:52;16.20;;;13.07;;
23222;SDS011;11780;13.904;100.620;2023-10-09T03:32:23;18.27;;;14.18;;
23222;SDS011;11780;13.904;100.620;2023-10-09T03:34:54;18.77;;;14.93;;
23222;SDS011;11780;13.904;100.620;2023-10-09T03:37:25;19.00;;;14.45;;
23222;SDS011;11780;13.904;100.620;2023-10-09T03:40:04;19.25;;;13.98;;
23222;SDS011;11780;13.904;100.620;2023-10-09T03:42:45;20.00;;;14.90;;
23222;SDS011;11780;13.904;100.620;2023-10-09T03:45:15;19.80;;;14.80;;
23222;SDS011;11780;13.904;100.620;2023-10-09T03:47:54;18.45;;;15.18;;
23222;SDS011;11780;13.904;100.620;2023-10-09T03:50:41;19.65;;;15.60;;
23222;SDS011;11780;13.904;100.620;2023-10-09T03:53:13;19.73;;;14.82;;
23222;SDS011;11780;13.904;100.620;2023-10-09T03:55:44;17.35;;;15.02;;
23222;SDS011;11780;13.904;100.620;2023-10-09T03:58:14;17.50;;;15.68;;
23222;SDS011;11780;13.904;100.620;2023-10-09T04:00:48;18.55;;;15.55;;
23222;SDS011;11780;13.904;100.620;2023-10-09T04:03:19;19.90;;;16.02;;
23222;SDS011;11780;13.904;100.620;2023-10-09T04:05:50;19.07;;;16.00;;
23222;SDS011;11780;13.904;100.620;2023-10-09T04:08:23;17.35;;;15.05;;
23222;SDS011;11780;13.904;100.620;2023-10-09T04:11:03;19.90;;;16.60;;
23222;SDS011;11780;13.904;100.620;2023-10-09T04:13:34;18.92;;;16.73;;
23222;SDS011;11780;13.904;100.620;2023-10-09T04:16:04;18.80;;;16.63;;
23222;SDS011;11780;13.904;100.620;2023-10-09T04:18:58;18.83;;;16.92;;
23222;SDS011;11780;13.904;100.620;2023-10-09T04:21:41;19.27;;;16.90;;
23222;SDS011;11780;13.904;100.620;2023-10-09T04:24:12;20.30;;;17.75;;
23222;SDS011;11780;13.904;100.620;2023-10-09T04:26:43;21.63;;;17.58;;
23222;SDS011;11780;13.904;100.620;2023-10-09T04:29:15;22.33;;;18.70;;
23222;SDS011;11780;13.904;100.620;2023-10-09T04:32:18;19.55;;;17.52;;
23222;SDS011;11780;13.904;100.620;2023-10-09T04:34:50;21.13;;;18.13;;
23222;SDS011;11780;13.904;100.620;2023-10-09T04:37:47;21.35;;;19.20;;
23222;SDS011;11780;13.904;100.620;2023-10-09T04:40:34;20.35;;;18.30;;
23222;SDS011;11780;13.904;100.620;2023-10-09T04:43:31;23.80;;;18.80;;
23222;SDS011;11780;13.904;100.620;2023-10-09T04:46:02;21.83;;;18.60;;
23222;SDS011;11780;13.904;100.620;2023-10-09T04:48:37;21.85;;;19.38;;
23222;SDS011;11780;13.904;100.620;2023-10-09T04:51:08;22.13;;;19.27;;
23222;SDS011;11780;13.904;100.620;2023-10-09T04:53:51;21.35;;;18.88;;
23222;SDS011;11780;13.904;100.620;2023-10-09T04:56:40;23.23;;;20.80;;
23222;SDS011;11780;13.904;100.620;2023-10-09T04:59:23;24.67;;;20.70;;
23222;SDS011;11780;13.904;100.620;2023-10-09T05:04:28;21.98;;;19.65;;
23222;SDS011;11780;13.904;100.620;2023-10-09T05:07:08;21.77;;;19.65;;
23222;SDS011;11780;13.904;100.620;2023-10-09T05:10:14;22.35;;;19.88;;
23222;SDS011;11780;13.904;100.620;2023-10-09T05:12:47;23.75;;;20.92;;
23222;SDS011;11780;13.904;100.620;2023-10-09T05:15:26;24.70;;;20.00;;
23222;SDS011;11780;13.904;100.620;2023-10-09T05:17:59;24.48;;;21.48;;
23222;SDS011;11780;13.904;100.620;2023-10-09T05:20:38;24.90;;;20.42;;
23222;SDS011;11780;13.904;100.620;2023-10-09T05:23:47;25.80;;;21.15;;
23222;SDS011;11780;13.904;100.620;2023-10-09T05:34:57;27.15;;;21.10;;
23222;SDS011;11780;13.904;100.620;2023-10-09T05:37:31;24.08;;;21.65;;
23222;SDS011;11780;13.904;100.620;2023-10-09T05:40:03;23.77;;;21.52;;
23222;SDS011;11780;13.904;100.620;2023-10-09T05:42:52;22.70;;;20.27;;
23222;SDS011;11780;13.904;100.620;2023-10-09T05:45:29;23.42;;;21.05;;
23222;SDS011;11780;13.904;100.620;2023-10-09T05:48:19;24.65;;;21.00;;
23222;SDS011;11780;13.904;100.620;2023-10-09T05:50:50;26.70;;;21.27;;
23222;SDS011;11780;13.904;100.620;2023-10-09T05:53:39;26.45;;;22.23;;
23222;SDS011;11780;13.904;100.620;2023-10-09T05:56:15;23.38;;;20.77;;
23222;SDS011;11780;13.904;100.620;2023-10-09T05:59:04;24.98;;;22.45;;
23222;SDS011;11780;13.904;100.620;2023-10-09T06:01:53;23.70;;;21.25;;
23222;SDS011;11780;13.904;100.620;2023-10-09T06:04:29;26.67;;;21.02;;
23222;SDS011;11780;13.904;100.620;2023-10-09T06:07:19;23.88;;;21.15;;
23222;SDS011;11780;13.904;100.620;2023-10-09T06:09:54;25.50;;;22.17;;
23222;SDS011;11780;13.904;100.620;2023-10-09T06:12:25;23.73;;;21.42;;
23222;SDS011;11780;13.904;100.620;2023-10-09T06:15:02;25.05;;;22.38;;
23222;SDS011;11780;13.904;100.620;2023-10-09T06:17:56;24.80;;;22.17;;
23222;SDS011;11780;13.904;100.620;2023-10-09T06:20:47;23.73;;;21.23;;
23222;SDS011;11780;13.904;100.620;2023-10-09T06:23:36;25.27;;;22.17;;
23222;SDS011;11780;13.904;100.620;2023-10-09T06:26:25;25.38;;;22.70;;
23222;SDS011;11780;13.904;100.620;2023-10-09T06:28:55;25.20;;;22.00;;
23222;SDS011;11780;13.904;100.620;2023-10-09T06:31:45;27.30;;;22.20;;
23222;SDS011;11780;13.904;100.620;2023-10-09T06:34:28;26.15;;;22.67;;
23222;SDS011;11780;13.904;100.620;2023-10-09T06:37:03;25.77;;;21.52;;
23222;SDS011;11780;13.904;100.620;2023-10-09T06:39:56;25.20;;;22.45;;
23222;SDS011;11780;13.904;100.620;2023-10-09T06:42:27;26.55;;;22.08;;
23222;SDS011;11780;13.904;100.620;2023-10-09T06:45:15;24.77;;;22.23;;
23222;SDS011;11780;13.904;100.620;2023-10-09T06:47:50;24.80;;;22.17;;
23222;SDS011;11780;13.904;100.620;2023-10-09T06:50:37;25.23;;;22.65;;
23222;SDS011;11780;13.904;100.620;2023-10-09T06:53:33;23.90;;;21.55;;
23222;SDS011;11780;13.904;100.620;2023-10-09T06:56:25;23.45;;;20.95;;
23222;SDS011;11780;13.904;100.620;2023-10-09T07:01:45;24.15;;;21.23;;
23222;SDS011;11780;13.904;100.620;2023-10-09T07:04:20;23.48;;;21.08;;
23222;SDS011;11780;13.904;100.620;2023-10-09T07:07:00;23.45;;;21.27;;
23222;SDS011;11780;13.904;100.620;2023-10-09T07:09:37;23.85;;;21.48;;
23222;SDS011;11780;13.904;100.620;2023-10-09T07:12:33;24.95;;;22.50;;
23222;SDS011;11780;13.904;100.620;2023-10-09T07:15:12;24.42;;;21.95;;
23222;SDS011;11780;13.904;100.620;2023-10-09T07:18:05;22.13;;;20.00;;
23222;SDS011;11780;13.904;100.620;2023-10-09T07:20:48;24.55;;;21.25;;
23222;SDS011;11780;13.904;100.620;2023-10-09T07:23:40;22.55;;;20.33;;
23222;SDS011;11780;13.904;100.620;2023-10-09T07:26:18;24.98;;;22.35;;
23222;SDS011;11780;13.904;100.620;2023-10-09T07:28:52;23.55;;;21.30;;
23222;SDS011;11780;13.904;100.620;2023-10-09T07:31:30;22.60;;;20.48;;
23222;SDS011;11780;13.904;100.620;2023-10-09T07:34:09;24.05;;;21.52;;
23222;SDS011;11780;13.904;100.620;2023-10-09T07:36:59;24.35;;;21.80;;
23222;SDS011;11780;13.904;100.620;2023-10-09T07:39:33;22.58;;;20.45;;
23222;SDS011;11780;13.904;100.620;2023-10-09T07:42:06;23.10;;;20.88;;
23222;SDS011;11780;13.904;100.620;2023-10-09T07:44:49;21.67;;;19.50;;
23222;SDS011;11780;13.904;100.620;2023-10-09T07:47:22;24.52;;;21.95;;
23222;SDS011;11780;13.904;100.620;2023-10-09T07:50:13;23.97;;;21.37;;
23222;SDS011;11780;13.904;100.620;2023-10-09T07:52:50;21.20;;;19.35;;
23222;SDS011;11780;13.904;100.620;2023-10-09T07:55:40;23.40;;;21.05;;
23222;SDS011;11780;13.904;100.620;2023-10-09T07:58:20;22.08;;;19.50;;
23222;SDS011;11780;13.904;100.620;2023-10-09T08:00:56;24.42;;;22.02;;
23222;SDS011;11780;13.904;100.620;2023-10-09T08:03:37;25.02;;;21.73;;
23222;SDS011;11780;13.904;100.620;2023-10-09T08:06:08;23.37;;;21.03;;
23222;SDS011;11780;13.904;100.620;2023-10-09T08:08:57;25.35;;;20.65;;
23222;SDS011;11780;13.904;100.620;2023-10-09T08:11:49;23.92;;;21.63;;
23222;SDS011;11780;13.904;100.620;2023-10-09T08:14:44;25.05;;;20.85;;
23222;SDS011;11780;13.904;100.620;2023-10-09T08:19:46;24.15;;;21.73;;
23222;SDS011;11780;13.904;100.620;2023-10-09T08:22:25;25.50;;;22.90;;
23222;SDS011;11780;13.904;100.620;2023-10-09T08:24:57;23.60;;;21.25;;
23222;SDS011;11780;13.904;100.620;2023-10-09T08:27:28;27.45;;;23.25;;
23222;SDS011;11780;13.904;100.620;2023-10-09T08:30:01;25.60;;;22.88;;
23222;SDS011;11780;13.904;100.620;2023-10-09T08:32:48;24.13;;;21.73;;
23222;SDS011;11780;13.904;100.620;2023-10-09T08:35:40;25.30;;;22.67;;
23222;SDS011;11780;13.904;100.620;2023-10-09T08:38:20;23.05;;;20.73;;
23222;SDS011;11780;13.904;100.620;2023-10-09T08:40:54;23.85;;;21.33;;
23222;SDS011;11780;13.904;100.620;2023-10-09T08:43:27;23.17;;;21.02;;
23222;SDS011;11780;13.904;100.620;2023-10-09T08:46:03;18.25;;;16.65;;
23222;SDS011;11780;13.904;100.620;2023-10-09T08:48:35;24.02;;;21.88;;
23222;SDS011;11780;13.904;100.620;2023-10-09T08:51:09;25.17;;;22.77;;
23222;SDS011;11780;13.904;100.620;2023-10-09T08:53:40;27.03;;;23.33;;
23222;SDS011;11780;13.904;100.620;2023-10-09T08:56:13;27.35;;;23.20;;
23222;SDS011;11780;13.904;100.620;2023-10-09T08:58:56;24.00;;;21.83;;
23222;SDS011;11780;13.904;100.620;2023-10-09T09:01:28;23.48;;;21.27;;
23222;SDS011;11780;13.904;100.620;2023-10-09T09:04:02;25.70;;;22.95;;
23222;SDS011;11780;13.904;100.620;2023-10-09T09:06:38;22.37;;;20.27;;
23222;SDS011;11780;13.904;100.620;2023-10-09T09:09:11;23.70;;;21.38;;
23222;SDS011;11780;13.904;100.620;2023-10-09T09:11:46;23.08;;;20.67;;
23222;SDS011;11780;13.904;100.620;2023-10-09T09:14:20;24.85;;;22.23;;
23222;SDS011;11780;13.904;100.620;2023-10-09T09:17:06;27.10;;;24.00;;
23222;SDS011;11780;13.904;100.620;2023-10-09T09:19:40;20.35;;;18.48;;
23222;SDS011;11780;13.904;100.620;2023-10-09T09:24:42;24.40;;;21.95;;
23222;SDS011;11780;13.904;100.620;2023-10-09T09:27:45;25.65;;;23.13;;
23222;SDS011;11780;13.904;100.620;2023-10-09T09:30:25;24.58;;;21.95;;
23222;SDS011;11780;13.904;100.620;2023-10-09T09:33:17;26.00;;;22.75;;
23222;SDS011;11780;13.904;100.620;2023-10-09T09:36:09;25.25;;;22.63;;
23222;SDS011;11780;13.904;100.620;2023-10-09T09:38:42;24.67;;;22.20;;
23222;SDS011;11780;13.904;100.620;2023-10-09T09:41:21;21.20;;;19.02;;
23222;SDS011;11780;13.904;100.620;2023-10-09T09:43:57;21.38;;;19.42;;
23222;SDS011;11780;13.904;100.620;2023-10-09T09:46:31;22.45;;;20.27;;
23222;SDS011;11780;13.904;100.620;2023-10-09T09:49:04;22.75;;;20.65;;
23222;SDS011;11780;13.904;100.620;2023-10-09T09:51:37;22.02;;;19.98;;
23222;SDS011;11780;13.904;100.620;2023-10-09T09:54:07;25.73;;;23.00;;
23222;SDS011;11780;13.904;100.620;2023-10-09T09:56:39;23.90;;;21.48;;
23222;SDS011;11780;13.904;100.620;2023-10-09T09:59:25;26.77;;;22.92;;
23222;SDS011;11780;13.904;100.620;2023-10-09T10:01:59;25.08;;;21.60;;
23222;SDS011;11780;13.904;100.620;2023-10-09T10:04:38;26.20;;;23.60;;
23222;SDS011;11780;13.904;100.620;2023-10-09T10:07:14;24.63;;;22.15;;
23222;SDS011;11780;13.904;100.620;2023-10-09T10:09:46;26.08;;;23.38;;
23222;SDS011;11780;13.904;100.620;2023-10-09T10:18:52;24.92;;;22.63;;
23222;SDS011;11780;13.904;100.620;2023-10-09T10:21:36;27.65;;;24.33;;
23222;SDS011;11780;13.904;100.620;2023-10-09T10:27:21;26.63;;;24.00;;
23222;SDS011;11780;13.904;100.620;2023-10-09T10:32:57;26.25;;;23.48;;
23222;SDS011;11780;13.904;100.620;2023-10-09T10:35:47;26.40;;;23.85;;
23222;SDS011;11780;13.904;100.620;2023-10-09T10:38:25;25.33;;;22.55;;
23222;SDS011;11780;13.904;100.620;2023-10-09T10:41:23;26.00;;;23.30;;
23222;SDS011;11780;13.904;100.620;2023-10-09T10:43:53;23.93;;;21.57;;
23222;SDS011;11780;13.904;100.620;2023-10-09T10:46:24;22.30;;;20.33;;
23222;SDS011;11780;13.904;100.620;2023-10-09T10:49:07;26.17;;;23.38;;
23222;SDS011;11780;13.904;100.620;2023-10-09T10:51:43;26.50;;;23.60;;
23222;SDS011;11780;13.904;100.620;2023-10-09T10:54:27;26.50;;;23.75;;
23222;SDS011;11780;13.904;100.620;2023-10-09T10:57:01;26.27;;;23.65;;
23222;SDS011;11780;13.904;100.620;2023-10-09T10:59:39;27.00;;;24.35;;
23222;SDS011;11780;13.904;100.620;2023-10-09T11:02:11;27.42;;;24.20;;
23222;SDS011;11780;13.904;100.620;2023-10-09T11:07:23;25.00;;;22.43;;
23222;SDS011;11780;13.904;100.620;2023-10-09T11:09:55;24.00;;;21.83;;
23222;SDS011;11780;13.904;100.620;2023-10-09T11:15:34;26.67;;;23.40;;
23222;SDS011;11780;13.904;100.620;2023-10-09T11:18:16;26.40;;;23.70;;
23222;SDS011;11780;13.904;100.620;2023-10-09T11:20:51;26.90;;;24.20;;
23222;SDS011;11780;13.904;100.620;2023-10-09T11:23:32;29.10;;;24.42;;
23222;SDS011;11780;13.904;100.620;2023-10-09T11:26:07;28.15;;;24.70;;
23222;SDS011;11780;13.904;100.620;2023-10-09T11:29:11;25.95;;;23.35;;
23222;SDS011;11780;13.904;100.620;2023-10-09T11:31:59;27.90;;;24.98;;
23222;SDS011;11780;13.904;100.620;2023-10-09T11:34:31;24.48;;;22.13;;
23222;SDS011;11780;13.904;100.620;2023-10-09T11:39:41;27.02;;;23.95;;
23222;SDS011;11780;13.904;100.620;2023-10-09T11:42:27;27.80;;;25.17;;
23222;SDS011;11780;13.904;100.620;2023-10-09T11:45:22;25.48;;;22.95;;
23222;SDS011;11780;13.904;100.620;2023-10-09T11:48:15;25.60;;;23.13;;
23222;SDS011;11780;13.904;100.620;2023-10-09T11:51:15;26.80;;;24.10;;
23222;SDS011;11780;13.904;100.620;2023-10-09T11:53:49;27.30;;;24.52;;
23222;SDS011;11780;13.904;100.620;2023-10-09T11:56:23;27.55;;;24.63;;
23222;SDS011;11780;13.904;100.620;2023-10-09T11:58:56;25.05;;;22.70;;
23222;SDS011;11780;13.904;100.620;2023-10-09T12:01:34;29.20;;;26.23;;
23222;SDS011;11780;13.904;100.620;2023-10-09T12:04:06;27.58;;;24.80;;
23222;SDS011;11780;13.904;100.620;2023-10-09T12:06:39;30.92;;;27.23;;
23222;SDS011;11780;13.904;100.620;2023-10-09T12:09:12;29.67;;;26.63;;
23222;SDS011;11780;13.904;100.620;2023-10-09T12:11:53;29.23;;;26.23;;
23222;SDS011;11780;13.904;100.620;2023-10-09T12:14:30;30.25;;;27.23;;
23222;SDS011;11780;13.904;100.620;2023-10-09T12:17:07;28.88;;;25.52;;
23222;SDS011;11780;13.904;100.620;2023-10-09T12:19:38;31.02;;;27.13;;
23222;SDS011;11780;13.904;100.620;2023-10-09T12:22:09;30.95;;;27.75;;
23222;SDS011;11780;13.904;100.620;2023-10-09T12:24:45;30.08;;;26.88;;
23222;SDS011;11780;13.904;100.620;2023-10-09T12:27:16;30.17;;;27.15;;
23222;SDS011;11780;13.904;100.620;2023-10-09T12:29:49;29.52;;;26.65;;
23222;SDS011;11780;13.904;100.620;2023-10-09T12:32:20;30.67;;;27.37;;
23222;SDS011;11780;13.904;100.620;2023-10-09T12:34:53;30.17;;;27.23;;
23222;SDS011;11780;13.904;100.620;2023-10-09T12:37:27;30.95;;;27.88;;
23222;SDS011;11780;13.904;100.620;2023-10-09T12:40:01;31.90;;;28.48;;
23222;SDS011;11780;13.904;100.620;2023-10-09T12:42:34;31.60;;;28.30;;
23222;SDS011;11780;13.904;100.620;2023-10-09T12:45:05;31.17;;;27.90;;
23222;SDS011;11780;13.904;100.620;2023-10-09T12:47:39;29.83;;;26.50;;
23222;SDS011;11780;13.904;100.620;2023-10-09T12:50:12;30.50;;;27.40;;
23222;SDS011;11780;13.904;100.620;2023-10-09T12:52:43;30.27;;;27.00;;
23222;SDS011;11780;13.904;100.620;2023-10-09T12:55:18;31.10;;;27.95;;
23222;SDS011;11780;13.904;100.620;2023-10-09T12:57:50;29.77;;;26.65;;
23222;SDS011;11780;13.904;100.620;2023-10-09T13:00:22;32.13;;;28.73;;
23222;SDS011;11780;13.904;100.620;2023-10-09T13:02:55;30.20;;;27.02;;
23222;SDS011;11780;13.904;100.620;2023-10-09T13:05:27;32.92;;;27.33;;
23222;SDS011;11780;13.904;100.620;2023-10-09T13:08:01;31.20;;;25.90;;
23222;SDS011;11780;13.904;100.620;2023-10-09T13:10:32;32.30;;;27.17;;
23222;SDS011;11780;13.904;100.620;2023-10-09T13:13:04;31.17;;;27.00;;
23222;SDS011;11780;13.904;100.620;2023-10-09T13:15:36;32.67;;;28.20;;
23222;SDS011;11780;13.904;100.620;2023-10-09T13:18:12;32.45;;;28.98;;
23222;SDS011;11780;13.904;100.620;2023-10-09T13:20:44;30.80;;;26.60;;
23222;SDS011;11780;13.904;100.620;2023-10-09T13:23:15;31.75;;;27.20;;
23222;SDS011;11780;13.904;100.620;2023-10-09T13:28:17;30.77;;;27.38;;
23222;SDS011;11780;13.904;100.620;2023-10-09T13:30:50;28.17;;;25.17;;
23222;SDS011;11780;13.904;100.620;2023-10-09T13:33:21;29.43;;;25.13;;
23222;SDS011;11780;13.904;100.620;2023-10-09T13:35:51;29.30;;;25.93;;
23222;SDS011;11780;13.904;100.620;2023-10-09T13:38:22;33.60;;;25.10;;
23222;SDS011;11780;13.904;100.620;2023-10-09T13:43:30;26.38;;;23.58;;
23222;SDS011;11780;13.904;100.620;2023-10-09T13:46:01;27.58;;;23.60;;
23222;SDS011;11780;13.904;100.620;2023-10-09T13:48:33;28.25;;;25.13;;
23222;SDS011;11780;13.904;100.620;2023-10-09T13:51:08;32.30;;;24.52;;
23222;SDS011;11780;13.904;100.620;2023-10-09T13:53:48;30.70;;;24.38;;
23222;SDS011;11780;13.904;100.620;2023-10-09T13:56:18;27.23;;;23.92;;
23222;SDS011;11780;13.904;100.620;2023-10-09T13:58:51;30.73;;;24.98;;
23222;SDS011;11780;13.904;100.620;2023-10-09T14:01:23;28.50;;;23.45;;
23222;SDS011;11780;13.904;100.620;2023-10-09T14:03:57;28.75;;;23.33;;
23222;SDS011;11780;13.904;100.620;2023-10-09T14:06:40;22.42;;;19.73;;
23222;SDS011;11780;13.904;100.620;2023-10-09T14:09:32;20.48;;;18.30;;
23222;SDS011;11780;13.904;100.620;2023-10-09T14:12:23;20.55;;;18.25;;
23222;SDS011;11780;13.904;100.620;2023-10-09T14:14:55;21.63;;;17.60;;
23222;SDS011;11780;13.904;100.620;2023-10-09T14:17:26;21.63;;;16.37;;
23222;SDS011;11780;13.904;100.620;2023-10-09T14:21:04;18.52;;;16.38;;
23222;SDS011;11780;13.904;100.620;2023-10-09T14:26:05;20.30;;;16.17;;
23222;SDS011;11780;13.904;100.620;2023-10-09T14:28:36;18.33;;;14.77;;
23222;SDS011;11780;13.904;100.620;2023-10-09T14:31:07;19.00;;;14.90;;
23222;SDS011;11780;13.904;100.620;2023-10-09T14:33:42;16.55;;;14.20;;
23222;SDS011;11780;13.904;100.620;2023-10-09T14:36:18;15.77;;;14.05;;
23222;SDS011;11780;13.904;100.620;2023-10-09T14:38:52;17.90;;;13.95;;
23222;SDS011;11780;13.904;100.620;2023-10-09T14:41:25;17.92;;;15.75;;
23222;SDS011;11780;13.904;100.620;2023-10-09T14:43:57;18.73;;;14.85;;
23222;SDS011;11780;13.904;100.620;2023-10-09T14:46:28;17.02;;;14.65;;
23222;SDS011;11780;13.904;100.620;2023-10-09T14:49:00;19.90;;;15.05;;
23222;SDS011;11780;13.904;100.620;2023-10-09T14:51:32;21.42;;;14.75;;
23222;SDS011;11780;13.904;100.620;2023-10-09T14:54:03;19.13;;;14.23;;
23222;SDS011;11780;13.904;100.620;2023-10-09T14:56:34;16.45;;;14.50;;
23222;SDS011;11780;13.904;100.620;2023-10-09T14:59:07;17.73;;;15.82;;
23222;SDS011;11780;13.904;100.620;2023-10-09T15:01:40;19.08;;;15.50;;
23222;SDS011;11780;13.904;100.620;2023-10-09T15:04:11;16.85;;;15.05;;
23222;SDS011;11780;13.904;100.620;2023-10-09T15:06:44;16.05;;;14.27;;
23222;SDS011;11780;13.904;100.620;2023-10-09T15:09:22;17.08;;;15.32;;
23222;SDS011;11780;13.904;100.620;2023-10-09T15:11:53;17.02;;;15.32;;
23222;SDS011;11780;13.904;100.620;2023-10-09T15:16:54;17.27;;;15.40;;
23222;SDS011;11780;13.904;100.620;2023-10-09T15:19:29;17.15;;;15.27;;
23222;SDS011;11780;13.904;100.620;2023-10-09T15:22:10;16.90;;;15.18;;
23222;SDS011;11780;13.904;100.620;2023-10-09T15:24:41;20.77;;;14.75;;
23222;SDS011;11780;13.904;100.620;2023-10-09T15:27:12;16.63;;;14.98;;
23222;SDS011;11780;13.904;100.620;2023-10-09T15:29:43;15.77;;;14.07;;
23222;SDS011;11780;13.904;100.620;2023-10-09T15:34:45;21.90;;;16.02;;
23222;SDS011;11780;13.904;100.620;2023-10-09T15:37:16;19.55;;;16.00;;
23222;SDS011;11780;13.904;100.620;2023-10-09T15:39:47;20.13;;;16.15;;
23222;SDS011;11780;13.904;100.620;2023-10-09T15:42:19;18.85;;;16.88;;
23222;SDS011;11780;13.904;100.620;2023-10-09T15:44:51;18.17;;;16.27;;
23222;SDS011;11780;13.904;100.620;2023-10-09T15:47:24;18.13;;;16.13;;
23222;SDS011;11780;13.904;100.620;2023-10-09T15:49:54;20.70;;;15.40;;
23222;SDS011;11780;13.904;100.620;2023-10-09T15:52:25;19.05;;;16.80;;
23222;SDS011;11780;13.904;100.620;2023-10-09T15:54:57;18.45;;;16.58;;
23222;SDS011;11780;13.904;100.620;2023-10-09T15:57:28;19.88;;;16.17;;
23222;SDS011;11780;13.904;100.620;2023-10-09T16:00:00;17.48;;;15.63;;